BBC Brazil — V7DV7 — position and weather

sailwx.info

Track history (hours):
 
Tides and Currents Weather Stations Pressure Air Temp Water Temp Dewpoint Dewpoint Depression Visibility Wind Speed Wind Dir Waves Ship Positions

BBC Brazil

Last reported at 2018-Jan-10 15:25 UTC. Time now 2018-Jan-20 19:22 UTC.
Position N 27°11' W 092°36'.
Warning: this ship's position is 10 days out of date.

Length 228 m; draft 12.2 m.

Type: Ship. MMSI: 538005439.

Date/timePositionNaut miles runAvg speedWind from/ knotsBaromVisibWave heightAir tempDewpointWater temp
2018-Jan-10 15:25N 27°11' W 092°36'1 1.3
2018-Jan-10 14:19N 27°12' W 092°36'196 6.9
2018-Jan-09 09:55N 29°42' W 095°00'4 6.7
2018-Jan-09 09:21N 29°45' W 095°04'2 5.3
2018-Jan-09 09:00N 29°45' W 095°06'  
2018-Jan-06 09:21N 29°45' W 095°06'0 0.6
2018-Jan-06 09:00N 29°45' W 095°06'2 3.2
2018-Jan-06 08:30N 29°46' W 095°04'4 7.4
2018-Jan-06 08:00N 29°43' W 095°01'4 8.6
2018-Jan-06 07:30N 29°40' W 094°58'611.7
2018-Jan-06 07:00N 29°34' W 094°55'612.6
2018-Jan-06 06:30N 29°29' W 094°52'713.1
2018-Jan-06 06:00N 29°23' W 094°49'  
Track history (hours):
 
Tides and Currents Weather Stations Pressure Air Temp Water Temp Dewpoint Dewpoint Depression Visibility Wind Speed Wind Dir Waves Ship Positions

BBC Brazil

Last reported at 2018-Jan-10 15:25 UTC. Time now 2018-Jan-20 19:22 UTC.
Position N 27°11' W 092°36'.
Warning: this ship's position is 10 days out of date.

Length 228 m; draft 12.2 m.

Type: Ship. MMSI: 538005439.

Date/timePositionNaut miles runAvg speedWind from/ knotsBaromVisibWave heightAir tempDewpointWater temp
2018-Jan-10 15:25N 27°11' W 092°36'1 1.3
2018-Jan-10 14:19N 27°12' W 092°36'196 6.9
2018-Jan-09 09:55N 29°42' W 095°00'4 6.7
2018-Jan-09 09:21N 29°45' W 095°04'2 5.3
2018-Jan-09 09:00N 29°45' W 095°06'  
2018-Jan-06 09:21N 29°45' W 095°06'0 0.6
2018-Jan-06 09:00N 29°45' W 095°06'2 3.2
2018-Jan-06 08:30N 29°46' W 095°04'4 7.4
2018-Jan-06 08:00N 29°43' W 095°01'4 8.6
2018-Jan-06 07:30N 29°40' W 094°58'611.7
2018-Jan-06 07:00N 29°34' W 094°55'612.6
2018-Jan-06 06:30N 29°29' W 094°52'713.1
2018-Jan-06 06:00N 29°23' W 094°49'  

Dump ship's entire track history